sensor_id;sensor_type;location;lat;lon;timestamp;temperature;humidity
3281;DHT22;1652;51.31805600;6.20194400;2024-03-29T00:00:26;8.40;1.00
3281;DHT22;1652;51.31805600;6.20194400;2024-03-29T00:02:51;8.30;99.90
3281;DHT22;1652;51.31805600;6.20194400;2024-03-29T00:05:17;8.30;1.00
3281;DHT22;1652;51.31805600;6.20194400;2024-03-29T00:07:44;8.20;1.00
3281;DHT22;1652;51.31805600;6.20194400;2024-03-29T00:10:10;8.20;1.00
3281;DHT22;1652;51.31805600;6.20194400;2024-03-29T00:12:35;8.20;1.00
3281;DHT22;1652;51.31805600;6.20194400;2024-03-29T00:15:01;8.10;1.00
3281;DHT22;1652;51.31805600;6.20194400;2024-03-29T00:17:30;8.00;1.00
3281;DHT22;1652;51.31805600;6.20194400;2024-03-29T00:19:56;8.00;1.00
3281;DHT22;1652;51.31805600;6.20194400;2024-03-29T00:22:21;8.00;1.00
3281;DHT22;1652;51.31805600;6.20194400;2024-03-29T00:24:47;8.00;1.00
3281;DHT22;1652;51.31805600;6.20194400;2024-03-29T00:27:13;8.00;1.00
3281;DHT22;1652;51.31805600;6.20194400;2024-03-29T00:29:38;8.00;1.00
3281;DHT22;1652;51.31805600;6.20194400;2024-03-29T00:32:05;8.10;1.00
3281;DHT22;1652;51.31805600;6.20194400;2024-03-29T00:34:30;8.10;99.90
3281;DHT22;1652;51.31805600;6.20194400;2024-03-29T00:36:56;8.10;1.00
3281;DHT22;1652;51.31805600;6.20194400;2024-03-29T00:39:22;8.10;1.00
3281;DHT22;1652;51.31805600;6.20194400;2024-03-29T00:41:48;8.10;1.00
3281;DHT22;1652;51.31805600;6.20194400;2024-03-29T00:44:14;8.10;1.00
3281;DHT22;1652;51.31805600;6.20194400;2024-03-29T00:46:39;8.20;1.00
3281;DHT22;1652;51.31805600;6.20194400;2024-03-29T00:49:05;8.20;1.00
3281;DHT22;1652;51.31805600;6.20194400;2024-03-29T00:51:31;8.20;1.00
3281;DHT22;1652;51.31805600;6.20194400;2024-03-29T00:53:57;8.10;1.00
3281;DHT22;1652;51.31805600;6.20194400;2024-03-29T00:56:22;8.10;1.00
3281;DHT22;1652;51.31805600;6.20194400;2024-03-29T00:58:48;8.20;1.00
3281;DHT22;1652;51.31805600;6.20194400;2024-03-29T01:01:14;8.20;1.00
3281;DHT22;1652;51.31805600;6.20194400;2024-03-29T01:03:39;8.10;1.00
3281;DHT22;1652;51.31805600;6.20194400;2024-03-29T01:06:05;8.20;1.00
3281;DHT22;1652;51.31805600;6.20194400;2024-03-29T01:08:31;8.20;1.00
3281;DHT22;1652;51.31805600;6.20194400;2024-03-29T01:10:57;8.20;1.00
3281;DHT22;1652;51.31805600;6.20194400;2024-03-29T01:13:22;8.10;1.00
3281;DHT22;1652;51.31805600;6.20194400;2024-03-29T01:15:48;8.10;1.00
3281;DHT22;1652;51.31805600;6.20194400;2024-03-29T01:18:14;8.10;1.00
3281;DHT22;1652;51.31805600;6.20194400;2024-03-29T01:20:40;8.10;1.00
3281;DHT22;1652;51.31805600;6.20194400;2024-03-29T01:23:05;8.20;1.00
3281;DHT22;1652;51.31805600;6.20194400;2024-03-29T01:25:32;8.10;1.00
3281;DHT22;1652;51.31805600;6.20194400;2024-03-29T01:27:59;8.10;1.00
3281;DHT22;1652;51.31805600;6.20194400;2024-03-29T01:30:25;8.10;1.00
3281;DHT22;1652;51.31805600;6.20194400;2024-03-29T01:32:52;8.10;1.00
3281;DHT22;1652;51.31805600;6.20194400;2024-03-29T01:35:18;8.00;1.00
3281;DHT22;1652;51.31805600;6.20194400;2024-03-29T01:37:44;8.10;1.00
3281;DHT22;1652;51.31805600;6.20194400;2024-03-29T01:40:10;8.20;1.00
3281;DHT22;1652;51.31805600;6.20194400;2024-03-29T01:42:36;8.20;1.00
3281;DHT22;1652;51.31805600;6.20194400;2024-03-29T01:45:02;8.20;1.00
3281;DHT22;1652;51.31805600;6.20194400;2024-03-29T01:47:27;8.20;1.00
3281;DHT22;1652;51.31805600;6.20194400;2024-03-29T01:49:53;8.20;1.00
3281;DHT22;1652;51.31805600;6.20194400;2024-03-29T01:52:20;8.20;1.00
3281;DHT22;1652;51.31805600;6.20194400;2024-03-29T01:54:47;8.30;1.00
3281;DHT22;1652;51.31805600;6.20194400;2024-03-29T01:57:14;8.30;1.00
3281;DHT22;1652;51.31805600;6.20194400;2024-03-29T01:59:42;8.20;1.00
3281;DHT22;1652;51.31805600;6.20194400;2024-03-29T02:02:10;8.30;1.00
3281;DHT22;1652;51.31805600;6.20194400;2024-03-29T02:04:37;8.30;1.00
3281;DHT22;1652;51.31805600;6.20194400;2024-03-29T02:07:03;8.30;1.00
3281;DHT22;1652;51.31805600;6.20194400;2024-03-29T02:09:29;8.40;1.00
3281;DHT22;1652;51.31805600;6.20194400;2024-03-29T02:11:55;8.40;1.00
3281;DHT22;1652;51.31805600;6.20194400;2024-03-29T02:14:21;8.40;1.00
3281;DHT22;1652;51.31805600;6.20194400;2024-03-29T02:16:47;8.40;1.00
3281;DHT22;1652;51.31805600;6.20194400;2024-03-29T02:19:12;8.50;1.00
3281;DHT22;1652;51.31805600;6.20194400;2024-03-29T02:21:42;8.50;1.00
3281;DHT22;1652;51.31805600;6.20194400;2024-03-29T02:24:09;8.50;1.00
3281;DHT22;1652;51.31805600;6.20194400;2024-03-29T02:26:35;8.50;1.00
3281;DHT22;1652;51.31805600;6.20194400;2024-03-29T02:29:03;8.50;1.00
3281;DHT22;1652;51.31805600;6.20194400;2024-03-29T02:31:29;8.60;1.00
3281;DHT22;1652;51.31805600;6.20194400;2024-03-29T02:33:55;8.50;1.00
3281;DHT22;1652;51.31805600;6.20194400;2024-03-29T02:36:21;8.60;1.00
3281;DHT22;1652;51.31805600;6.20194400;2024-03-29T02:38:46;8.60;1.00
3281;DHT22;1652;51.31805600;6.20194400;2024-03-29T02:41:12;8.60;1.00
3281;DHT22;1652;51.31805600;6.20194400;2024-03-29T02:43:38;8.60;1.00
3281;DHT22;1652;51.31805600;6.20194400;2024-03-29T02:46:04;8.60;1.00
3281;DHT22;1652;51.31805600;6.20194400;2024-03-29T02:48:30;8.50;81.60
3281;DHT22;1652;51.31805600;6.20194400;2024-03-29T02:50:55;8.50;99.90
3281;DHT22;1652;51.31805600;6.20194400;2024-03-29T02:53:21;8.40;99.90
3281;DHT22;1652;51.31805600;6.20194400;2024-03-29T02:55:47;8.40;99.90
3281;DHT22;1652;51.31805600;6.20194400;2024-03-29T02:58:13;8.30;99.90
3281;DHT22;1652;51.31805600;6.20194400;2024-03-29T03:00:38;8.30;99.90
3281;DHT22;1652;51.31805600;6.20194400;2024-03-29T03:03:04;8.30;99.90
3281;DHT22;1652;51.31805600;6.20194400;2024-03-29T03:05:30;8.30;99.90
3281;DHT22;1652;51.31805600;6.20194400;2024-03-29T03:07:56;8.30;1.00
3281;DHT22;1652;51.31805600;6.20194400;2024-03-29T03:10:47;8.30;1.00
3281;DHT22;1652;51.31805600;6.20194400;2024-03-29T03:13:22;8.20;99.90
3281;DHT22;1652;51.31805600;6.20194400;2024-03-29T03:15:48;8.20;1.00
3281;DHT22;1652;51.31805600;6.20194400;2024-03-29T03:18:13;8.30;99.90
3281;DHT22;1652;51.31805600;6.20194400;2024-03-29T03:20:39;8.30;1.00
3281;DHT22;1652;51.31805600;6.20194400;2024-03-29T03:23:05;8.40;99.90
3281;DHT22;1652;51.31805600;6.20194400;2024-03-29T03:25:31;8.40;99.90
3281;DHT22;1652;51.31805600;6.20194400;2024-03-29T03:27:57;8.40;99.90
3281;DHT22;1652;51.31805600;6.20194400;2024-03-29T03:30:22;8.40;99.90
3281;DHT22;1652;51.31805600;6.20194400;2024-03-29T03:32:48;8.50;99.90
3281;DHT22;1652;51.31805600;6.20194400;2024-03-29T03:35:14;8.60;99.90
3281;DHT22;1652;51.31805600;6.20194400;2024-03-29T03:37:40;8.60;99.90
3281;DHT22;1652;51.31805600;6.20194400;2024-03-29T03:40:06;8.60;99.90
3281;DHT22;1652;51.31805600;6.20194400;2024-03-29T03:42:33;8.70;99.90
3281;DHT22;1652;51.31805600;6.20194400;2024-03-29T03:44:58;8.80;99.90
3281;DHT22;1652;51.31805600;6.20194400;2024-03-29T03:47:24;8.80;99.90
3281;DHT22;1652;51.31805600;6.20194400;2024-03-29T03:49:50;8.90;99.90
3281;DHT22;1652;51.31805600;6.20194400;2024-03-29T03:52:16;8.90;99.90
3281;DHT22;1652;51.31805600;6.20194400;2024-03-29T03:54:42;8.90;99.90
3281;DHT22;1652;51.31805600;6.20194400;2024-03-29T03:57:07;8.90;99.90
3281;DHT22;1652;51.31805600;6.20194400;2024-03-29T03:59:33;8.80;99.90
3281;DHT22;1652;51.31805600;6.20194400;2024-03-29T04:01:59;8.80;99.90
3281;DHT22;1652;51.31805600;6.20194400;2024-03-29T04:04:25;8.80;1.00
3281;DHT22;1652;51.31805600;6.20194400;2024-03-29T04:06:50;8.80;1.00
3281;DHT22;1652;51.31805600;6.20194400;2024-03-29T04:09:16;8.60;1.00
3281;DHT22;1652;51.31805600;6.20194400;2024-03-29T04:11:43;8.60;1.00
3281;DHT22;1652;51.31805600;6.20194400;2024-03-29T04:14:09;8.40;1.00
3281;DHT22;1652;51.31805600;6.20194400;2024-03-29T04:16:34;8.40;1.00
3281;DHT22;1652;51.31805600;6.20194400;2024-03-29T04:19:00;8.30;1.00
3281;DHT22;1652;51.31805600;6.20194400;2024-03-29T04:21:29;8.20;1.00
3281;DHT22;1652;51.31805600;6.20194400;2024-03-29T04:23:54;8.20;1.00
3281;DHT22;1652;51.31805600;6.20194400;2024-03-29T04:26:21;8.10;21.30
3281;DHT22;1652;51.31805600;6.20194400;2024-03-29T04:28:47;8.10;37.60
3281;DHT22;1652;51.31805600;6.20194400;2024-03-29T04:31:13;8.10;95.50
3281;DHT22;1652;51.31805600;6.20194400;2024-03-29T04:33:39;8.00;99.90
3281;DHT22;1652;51.31805600;6.20194400;2024-03-29T04:36:05;8.00;99.90
3281;DHT22;1652;51.31805600;6.20194400;2024-03-29T04:38:31;7.90;99.90
3281;DHT22;1652;51.31805600;6.20194400;2024-03-29T04:40:58;7.90;99.90
3281;DHT22;1652;51.31805600;6.20194400;2024-03-29T04:43:28;7.90;99.90
3281;DHT22;1652;51.31805600;6.20194400;2024-03-29T04:46:07;7.80;99.90
3281;DHT22;1652;51.31805600;6.20194400;2024-03-29T04:48:35;7.80;99.90
3281;DHT22;1652;51.31805600;6.20194400;2024-03-29T04:51:01;7.80;99.90
3281;DHT22;1652;51.31805600;6.20194400;2024-03-29T04:53:27;7.70;99.90
3281;DHT22;1652;51.31805600;6.20194400;2024-03-29T04:55:54;7.70;99.90
3281;DHT22;1652;51.31805600;6.20194400;2024-03-29T04:58:21;7.60;99.90
3281;DHT22;1652;51.31805600;6.20194400;2024-03-29T05:00:51;7.60;1.00
3281;DHT22;1652;51.31805600;6.20194400;2024-03-29T05:03:17;7.70;1.00
3281;DHT22;1652;51.31805600;6.20194400;2024-03-29T05:05:47;7.60;1.00
3281;DHT22;1652;51.31805600;6.20194400;2024-03-29T05:08:14;7.50;1.00
3281;DHT22;1652;51.31805600;6.20194400;2024-03-29T05:10:40;7.60;99.90
3281;DHT22;1652;51.31805600;6.20194400;2024-03-29T05:13:06;7.70;99.90
3281;DHT22;1652;51.31805600;6.20194400;2024-03-29T05:15:32;7.60;1.00
3281;DHT22;1652;51.31805600;6.20194400;2024-03-29T05:17:58;7.60;1.00
3281;DHT22;1652;51.31805600;6.20194400;2024-03-29T05:20:24;7.60;1.00
3281;DHT22;1652;51.31805600;6.20194400;2024-03-29T05:22:50;7.60;1.00
3281;DHT22;1652;51.31805600;6.20194400;2024-03-29T05:25:16;7.50;1.00
3281;DHT22;1652;51.31805600;6.20194400;2024-03-29T05:27:41;7.50;1.00
3281;DHT22;1652;51.31805600;6.20194400;2024-03-29T05:30:07;7.50;1.00
3281;DHT22;1652;51.31805600;6.20194400;2024-03-29T05:32:35;7.50;1.00
3281;DHT22;1652;51.31805600;6.20194400;2024-03-29T05:35:01;7.50;1.00
3281;DHT22;1652;51.31805600;6.20194400;2024-03-29T05:37:27;7.50;1.00
3281;DHT22;1652;51.31805600;6.20194400;2024-03-29T05:39:54;7.50;1.00
3281;DHT22;1652;51.31805600;6.20194400;2024-03-29T05:42:26;7.60;1.00
3281;DHT22;1652;51.31805600;6.20194400;2024-03-29T05:44:51;7.80;1.00
3281;DHT22;1652;51.31805600;6.20194400;2024-03-29T05:47:17;7.70;1.00
3281;DHT22;1652;51.31805600;6.20194400;2024-03-29T05:49:43;7.70;1.00
3281;DHT22;1652;51.31805600;6.20194400;2024-03-29T05:52:09;7.60;1.00
3281;DHT22;1652;51.31805600;6.20194400;2024-03-29T05:54:34;7.50;1.00
3281;DHT22;1652;51.31805600;6.20194400;2024-03-29T05:57:00;7.50;1.00
3281;DHT22;1652;51.31805600;6.20194400;2024-03-29T05:59:26;7.50;1.00
3281;DHT22;1652;51.31805600;6.20194400;2024-03-29T06:01:52;7.70;1.00
3281;DHT22;1652;51.31805600;6.20194400;2024-03-29T06:04:17;7.80;1.00
3281;DHT22;1652;51.31805600;6.20194400;2024-03-29T06:06:47;7.70;1.00
3281;DHT22;1652;51.31805600;6.20194400;2024-03-29T06:09:12;7.60;1.00
3281;DHT22;1652;51.31805600;6.20194400;2024-03-29T06:11:38;7.60;1.00
3281;DHT22;1652;51.31805600;6.20194400;2024-03-29T06:14:04;7.60;1.00
3281;DHT22;1652;51.31805600;6.20194400;2024-03-29T06:16:30;7.50;1.00
3281;DHT22;1652;51.31805600;6.20194400;2024-03-29T06:19:15;7.60;1.00
3281;DHT22;1652;51.31805600;6.20194400;2024-03-29T06:21:41;7.60;1.00
3281;DHT22;1652;51.31805600;6.20194400;2024-03-29T06:24:09;7.70;1.00
3281;DHT22;1652;51.31805600;6.20194400;2024-03-29T06:26:40;7.70;1.00
3281;DHT22;1652;51.31805600;6.20194400;2024-03-29T06:29:06;7.80;1.00
3281;DHT22;1652;51.31805600;6.20194400;2024-03-29T06:31:32;8.00;1.00
3281;DHT22;1652;51.31805600;6.20194400;2024-03-29T06:33:58;7.80;1.00
3281;DHT22;1652;51.31805600;6.20194400;2024-03-29T06:36:24;7.80;1.00
3281;DHT22;1652;51.31805600;6.20194400;2024-03-29T06:38:51;7.80;1.00
3281;DHT22;1652;51.31805600;6.20194400;2024-03-29T06:41:19;7.70;1.00
3281;DHT22;1652;51.31805600;6.20194400;2024-03-29T06:43:45;7.80;1.00
3281;DHT22;1652;51.31805600;6.20194400;2024-03-29T06:46:12;8.00;1.00
3281;DHT22;1652;51.31805600;6.20194400;2024-03-29T06:48:37;8.00;1.00
3281;DHT22;1652;51.31805600;6.20194400;2024-03-29T06:51:03;7.90;1.00
3281;DHT22;1652;51.31805600;6.20194400;2024-03-29T06:53:30;7.80;1.00
3281;DHT22;1652;51.31805600;6.20194400;2024-03-29T06:55:56;7.90;1.00
3281;DHT22;1652;51.31805600;6.20194400;2024-03-29T06:58:25;7.80;1.00
3281;DHT22;1652;51.31805600;6.20194400;2024-03-29T07:00:51;7.90;1.00
3281;DHT22;1652;51.31805600;6.20194400;2024-03-29T07:03:18;8.00;1.00
3281;DHT22;1652;51.31805600;6.20194400;2024-03-29T07:05:45;8.10;1.00
3281;DHT22;1652;51.31805600;6.20194400;2024-03-29T07:08:11;8.20;99.90
3281;DHT22;1652;51.31805600;6.20194400;2024-03-29T07:10:37;8.40;99.90
3281;DHT22;1652;51.31805600;6.20194400;2024-03-29T07:13:03;8.40;66.20
3281;DHT22;1652;51.31805600;6.20194400;2024-03-29T07:15:29;8.60;47.00
3281;DHT22;1652;51.31805600;6.20194400;2024-03-29T07:17:54;8.60;1.00
3281;DHT22;1652;51.31805600;6.20194400;2024-03-29T07:20:22;8.60;1.00
3281;DHT22;1652;51.31805600;6.20194400;2024-03-29T07:22:47;8.80;1.00
3281;DHT22;1652;51.31805600;6.20194400;2024-03-29T07:25:13;8.90;1.00
3281;DHT22;1652;51.31805600;6.20194400;2024-03-29T07:27:39;9.00;1.00
3281;DHT22;1652;51.31805600;6.20194400;2024-03-29T07:30:07;9.10;1.00
3281;DHT22;1652;51.31805600;6.20194400;2024-03-29T07:32:37;9.10;1.00
3281;DHT22;1652;51.31805600;6.20194400;2024-03-29T07:35:03;9.20;1.00
3281;DHT22;1652;51.31805600;6.20194400;2024-03-29T07:37:29;9.30;1.00
3281;DHT22;1652;51.31805600;6.20194400;2024-03-29T07:39:55;9.40;1.00
3281;DHT22;1652;51.31805600;6.20194400;2024-03-29T07:42:21;9.40;1.00
3281;DHT22;1652;51.31805600;6.20194400;2024-03-29T07:44:48;9.40;1.00
3281;DHT22;1652;51.31805600;6.20194400;2024-03-29T07:47:13;9.50;99.90
3281;DHT22;1652;51.31805600;6.20194400;2024-03-29T07:49:40;9.50;99.90
3281;DHT22;1652;51.31805600;6.20194400;2024-03-29T07:52:06;9.60;99.90
3281;DHT22;1652;51.31805600;6.20194400;2024-03-29T07:54:34;9.70;99.90
3281;DHT22;1652;51.31805600;6.20194400;2024-03-29T07:57:00;9.80;99.90
3281;DHT22;1652;51.31805600;6.20194400;2024-03-29T07:59:27;9.90;99.90
3281;DHT22;1652;51.31805600;6.20194400;2024-03-29T08:01:53;10.00;99.90
3281;DHT22;1652;51.31805600;6.20194400;2024-03-29T08:04:20;10.10;99.90
3281;DHT22;1652;51.31805600;6.20194400;2024-03-29T08:06:46;10.10;99.90
3281;DHT22;1652;51.31805600;6.20194400;2024-03-29T08:09:12;10.20;74.60
3281;DHT22;1652;51.31805600;6.20194400;2024-03-29T08:11:40;10.40;99.90
3281;DHT22;1652;51.31805600;6.20194400;2024-03-29T08:14:06;10.50;99.90
3281;DHT22;1652;51.31805600;6.20194400;2024-03-29T08:16:33;10.60;1.00
3281;DHT22;1652;51.31805600;6.20194400;2024-03-29T08:18:59;10.70;99.90
3281;DHT22;1652;51.31805600;6.20194400;2024-03-29T08:21:24;10.90;1.00
3281;DHT22;1652;51.31805600;6.20194400;2024-03-29T08:23:53;11.00;1.00
3281;DHT22;1652;51.31805600;6.20194400;2024-03-29T08:26:23;11.20;1.00
3281;DHT22;1652;51.31805600;6.20194400;2024-03-29T08:28:50;11.30;1.00
3281;DHT22;1652;51.31805600;6.20194400;2024-03-29T08:31:16;11.30;1.00
3281;DHT22;1652;51.31805600;6.20194400;2024-03-29T08:33:42;11.40;1.00
3281;DHT22;1652;51.31805600;6.20194400;2024-03-29T08:36:11;11.30;1.00
3281;DHT22;1652;51.31805600;6.20194400;2024-03-29T08:38:37;11.40;99.90
3281;DHT22;1652;51.31805600;6.20194400;2024-03-29T08:41:07;11.50;99.90
3281;DHT22;1652;51.31805600;6.20194400;2024-03-29T08:43:33;11.70;99.90
3281;DHT22;1652;51.31805600;6.20194400;2024-03-29T08:45:59;11.70;99.90
3281;DHT22;1652;51.31805600;6.20194400;2024-03-29T08:48:26;11.80;99.90
3281;DHT22;1652;51.31805600;6.20194400;2024-03-29T08:50:52;12.20;99.90
3281;DHT22;1652;51.31805600;6.20194400;2024-03-29T08:53:18;12.60;99.90
3281;DHT22;1652;51.31805600;6.20194400;2024-03-29T08:55:46;12.80;1.00
3281;DHT22;1652;51.31805600;6.20194400;2024-03-29T08:58:12;12.80;1.00
3281;DHT22;1652;51.31805600;6.20194400;2024-03-29T09:00:38;12.50;1.00
3281;DHT22;1652;51.31805600;6.20194400;2024-03-29T09:03:04;12.50;1.00
3281;DHT22;1652;51.31805600;6.20194400;2024-03-29T09:05:29;12.50;1.00
3281;DHT22;1652;51.31805600;6.20194400;2024-03-29T09:07:56;12.50;96.20
3281;DHT22;1652;51.31805600;6.20194400;2024-03-29T09:10:23;12.50;1.00
3281;DHT22;1652;51.31805600;6.20194400;2024-03-29T09:12:50;12.40;1.00
3281;DHT22;1652;51.31805600;6.20194400;2024-03-29T09:15:16;12.30;10.80
3281;DHT22;1652;51.31805600;6.20194400;2024-03-29T09:17:43;12.20;99.90
3281;DHT22;1652;51.31805600;6.20194400;2024-03-29T09:20:09;12.10;99.90
3281;DHT22;1652;51.31805600;6.20194400;2024-03-29T09:22:37;12.20;99.90
3281;DHT22;1652;51.31805600;6.20194400;2024-03-29T09:25:04;12.40;99.90
3281;DHT22;1652;51.31805600;6.20194400;2024-03-29T09:27:30;12.30;99.90
3281;DHT22;1652;51.31805600;6.20194400;2024-03-29T09:29:59;12.40;93.60
3281;DHT22;1652;51.31805600;6.20194400;2024-03-29T09:32:24;12.60;13.70
3281;DHT22;1652;51.31805600;6.20194400;2024-03-29T09:34:50;12.80;1.00
3281;DHT22;1652;51.31805600;6.20194400;2024-03-29T09:37:16;13.20;1.00
3281;DHT22;1652;51.31805600;6.20194400;2024-03-29T09:39:43;13.50;99.90
3281;DHT22;1652;51.31805600;6.20194400;2024-03-29T09:42:15;13.80;99.90
3281;DHT22;1652;51.31805600;6.20194400;2024-03-29T09:44:43;13.90;1.00
3281;DHT22;1652;51.31805600;6.20194400;2024-03-29T09:47:10;14.10;1.00
3281;DHT22;1652;51.31805600;6.20194400;2024-03-29T09:49:38;14.20;1.00
3281;DHT22;1652;51.31805600;6.20194400;2024-03-29T09:52:05;14.30;1.00
3281;DHT22;1652;51.31805600;6.20194400;2024-03-29T09:54:32;14.30;42.00
3281;DHT22;1652;51.31805600;6.20194400;2024-03-29T09:56:59;14.30;99.90
3281;DHT22;1652;51.31805600;6.20194400;2024-03-29T09:59:25;14.20;98.20
3281;DHT22;1652;51.31805600;6.20194400;2024-03-29T10:01:55;14.10;1.00
3281;DHT22;1652;51.31805600;6.20194400;2024-03-29T10:04:23;13.90;99.90
3281;DHT22;1652;51.31805600;6.20194400;2024-03-29T10:06:50;13.90;99.90
3281;DHT22;1652;51.31805600;6.20194400;2024-03-29T10:09:22;13.70;99.90
3281;DHT22;1652;51.31805600;6.20194400;2024-03-29T10:11:48;13.70;1.00
3281;DHT22;1652;51.31805600;6.20194400;2024-03-29T10:14:14;13.70;1.00
3281;DHT22;1652;51.31805600;6.20194400;2024-03-29T10:16:40;13.80;1.00
3281;DHT22;1652;51.31805600;6.20194400;2024-03-29T10:19:07;13.90;99.90
3281;DHT22;1652;51.31805600;6.20194400;2024-03-29T10:21:34;14.00;99.90
3281;DHT22;1652;51.31805600;6.20194400;2024-03-29T10:24:15;14.10;1.00
3281;DHT22;1652;51.31805600;6.20194400;2024-03-29T10:26:46;14.20;1.00
3281;DHT22;1652;51.31805600;6.20194400;2024-03-29T10:29:12;14.30;1.00
3281;DHT22;1652;51.31805600;6.20194400;2024-03-29T10:31:38;14.50;1.00
3281;DHT22;1652;51.31805600;6.20194400;2024-03-29T10:34:04;14.70;1.00
3281;DHT22;1652;51.31805600;6.20194400;2024-03-29T10:36:34;14.80;1.00
3281;DHT22;1652;51.31805600;6.20194400;2024-03-29T10:39:10;14.90;99.90
3281;DHT22;1652;51.31805600;6.20194400;2024-03-29T10:41:39;14.90;1.00
3281;DHT22;1652;51.31805600;6.20194400;2024-03-29T10:44:09;14.80;1.00
3281;DHT22;1652;51.31805600;6.20194400;2024-03-29T10:46:37;14.70;1.00
3281;DHT22;1652;51.31805600;6.20194400;2024-03-29T10:49:09;14.60;1.00
3281;DHT22;1652;51.31805600;6.20194400;2024-03-29T10:51:39;14.50;1.00
3281;DHT22;1652;51.31805600;6.20194400;2024-03-29T10:54:09;14.60;1.00
3281;DHT22;1652;51.31805600;6.20194400;2024-03-29T10:56:36;14.30;99.90
3281;DHT22;1652;51.31805600;6.20194400;2024-03-29T11:02:13;14.10;1.00
3281;DHT22;1652;51.31805600;6.20194400;2024-03-29T11:04:43;14.20;99.90
3281;DHT22;1652;51.31805600;6.20194400;2024-03-29T11:07:15;14.70;1.00
3281;DHT22;1652;51.31805600;6.20194400;2024-03-29T11:09:52;15.00;1.00
3281;DHT22;1652;51.31805600;6.20194400;2024-03-29T11:12:19;15.20;1.00
3281;DHT22;1652;51.31805600;6.20194400;2024-03-29T11:14:46;15.20;99.90
3281;DHT22;1652;51.31805600;6.20194400;2024-03-29T11:17:22;15.30;1.00
3281;DHT22;1652;51.31805600;6.20194400;2024-03-29T11:19:48;15.30;1.00
3281;DHT22;1652;51.31805600;6.20194400;2024-03-29T11:22:14;15.20;1.00
3281;DHT22;1652;51.31805600;6.20194400;2024-03-29T11:24:39;15.10;99.90
3281;DHT22;1652;51.31805600;6.20194400;2024-03-29T11:27:08;15.10;1.00
3281;DHT22;1652;51.31805600;6.20194400;2024-03-29T11:29:34;15.20;1.00
3281;DHT22;1652;51.31805600;6.20194400;2024-03-29T11:32:06;15.30;99.90
3281;DHT22;1652;51.31805600;6.20194400;2024-03-29T11:34:32;15.50;1.00
3281;DHT22;1652;51.31805600;6.20194400;2024-03-29T11:37:09;15.80;1.00
3281;DHT22;1652;51.31805600;6.20194400;2024-03-29T11:39:35;16.20;16.30
3281;DHT22;1652;51.31805600;6.20194400;2024-03-29T11:42:02;16.40;1.00
3281;DHT22;1652;51.31805600;6.20194400;2024-03-29T11:44:28;16.30;99.90
3281;DHT22;1652;51.31805600;6.20194400;2024-03-29T11:46:58;16.20;8.20
3281;DHT22;1652;51.31805600;6.20194400;2024-03-29T11:49:24;16.10;1.00
3281;DHT22;1652;51.31805600;6.20194400;2024-03-29T11:51:50;15.90;1.00
3281;DHT22;1652;51.31805600;6.20194400;2024-03-29T11:54:15;15.70;1.00
3281;DHT22;1652;51.31805600;6.20194400;2024-03-29T11:56:44;15.50;1.00
3281;DHT22;1652;51.31805600;6.20194400;2024-03-29T11:59:10;15.40;1.00
3281;DHT22;1652;51.31805600;6.20194400;2024-03-29T12:01:36;15.30;1.00
3281;DHT22;1652;51.31805600;6.20194400;2024-03-29T12:04:05;15.30;1.00
3281;DHT22;1652;51.31805600;6.20194400;2024-03-29T12:06:31;15.30;1.00
3281;DHT22;1652;51.31805600;6.20194400;2024-03-29T12:08:57;15.20;1.00
3281;DHT22;1652;51.31805600;6.20194400;2024-03-29T12:11:23;15.30;1.00
3281;DHT22;1652;51.31805600;6.20194400;2024-03-29T12:13:49;15.60;1.00
3281;DHT22;1652;51.31805600;6.20194400;2024-03-29T12:16:15;15.90;1.00
3281;DHT22;1652;51.31805600;6.20194400;2024-03-29T12:18:41;16.10;1.00
3281;DHT22;1652;51.31805600;6.20194400;2024-03-29T12:21:07;16.10;1.00
3281;DHT22;1652;51.31805600;6.20194400;2024-03-29T12:23:35;16.20;1.00
3281;DHT22;1652;51.31805600;6.20194400;2024-03-29T12:26:01;16.40;1.00
3281;DHT22;1652;51.31805600;6.20194400;2024-03-29T12:28:27;16.60;1.00
3281;DHT22;1652;51.31805600;6.20194400;2024-03-29T12:30:53;16.50;1.00
3281;DHT22;1652;51.31805600;6.20194400;2024-03-29T12:33:21;16.60;1.00
3281;DHT22;1652;51.31805600;6.20194400;2024-03-29T12:35:50;16.70;1.00
3281;DHT22;1652;51.31805600;6.20194400;2024-03-29T12:38:19;16.70;1.00
3281;DHT22;1652;51.31805600;6.20194400;2024-03-29T12:40:46;16.60;1.00
3281;DHT22;1652;51.31805600;6.20194400;2024-03-29T12:43:14;16.60;1.00
3281;DHT22;1652;51.31805600;6.20194400;2024-03-29T12:45:41;16.80;1.00
3281;DHT22;1652;51.31805600;6.20194400;2024-03-29T12:48:19;16.90;1.00
3281;DHT22;1652;51.31805600;6.20194400;2024-03-29T12:50:54;16.90;1.00
3281;DHT22;1652;51.31805600;6.20194400;2024-03-29T12:53:21;16.80;1.00
3281;DHT22;1652;51.31805600;6.20194400;2024-03-29T12:55:48;16.60;1.00
3281;DHT22;1652;51.31805600;6.20194400;2024-03-29T12:58:16;16.30;1.00
3281;DHT22;1652;51.31805600;6.20194400;2024-03-29T13:00:43;16.30;1.00
3281;DHT22;1652;51.31805600;6.20194400;2024-03-29T13:03:09;16.40;1.00
3281;DHT22;1652;51.31805600;6.20194400;2024-03-29T13:05:36;16.30;1.00
3281;DHT22;1652;51.31805600;6.20194400;2024-03-29T13:08:10;16.40;1.00
3281;DHT22;1652;51.31805600;6.20194400;2024-03-29T13:10:38;16.40;1.00
3281;DHT22;1652;51.31805600;6.20194400;2024-03-29T13:13:05;16.40;1.00
3281;DHT22;1652;51.31805600;6.20194400;2024-03-29T13:15:33;16.50;1.00
3281;DHT22;1652;51.31805600;6.20194400;2024-03-29T13:17:59;16.40;1.00
3281;DHT22;1652;51.31805600;6.20194400;2024-03-29T13:20:26;16.40;1.00
3281;DHT22;1652;51.31805600;6.20194400;2024-03-29T13:22:51;16.50;1.00
3281;DHT22;1652;51.31805600;6.20194400;2024-03-29T13:25:20;16.50;1.00
3281;DHT22;1652;51.31805600;6.20194400;2024-03-29T13:27:49;16.50;1.00
3281;DHT22;1652;51.31805600;6.20194400;2024-03-29T13:30:20;16.50;1.00
3281;DHT22;1652;51.31805600;6.20194400;2024-03-29T13:32:46;16.60;1.00
3281;DHT22;1652;51.31805600;6.20194400;2024-03-29T13:35:12;16.60;1.00
3281;DHT22;1652;51.31805600;6.20194400;2024-03-29T13:37:45;16.60;1.00
3281;DHT22;1652;51.31805600;6.20194400;2024-03-29T13:40:15;16.60;1.00
3281;DHT22;1652;51.31805600;6.20194400;2024-03-29T13:42:41;16.50;1.00
3281;DHT22;1652;51.31805600;6.20194400;2024-03-29T13:45:08;16.40;1.00
3281;DHT22;1652;51.31805600;6.20194400;2024-03-29T13:47:43;16.50;1.00
3281;DHT22;1652;51.31805600;6.20194400;2024-03-29T13:50:10;16.50;1.00
3281;DHT22;1652;51.31805600;6.20194400;2024-03-29T13:52:37;16.40;1.00
3281;DHT22;1652;51.31805600;6.20194400;2024-03-29T13:55:04;16.50;1.00
3281;DHT22;1652;51.31805600;6.20194400;2024-03-29T13:57:30;16.40;1.00
3281;DHT22;1652;51.31805600;6.20194400;2024-03-29T13:59:57;16.30;1.00
3281;DHT22;1652;51.31805600;6.20194400;2024-03-29T14:02:24;16.30;1.00